sensor_id;sensor_type;location;lat;lon;timestamp;pressure;altitude;pressure_sealevel;temperature;humidity
13612;BME280;6877;51.436;6.774;2023-02-03T00:02:25;102051.25;;;7.51;100.00
13612;BME280;6877;51.436;6.774;2023-02-03T00:04:52;102048.59;;;7.49;100.00
13612;BME280;6877;51.436;6.774;2023-02-03T00:07:18;102041.66;;;7.50;100.00
13612;BME280;6877;51.436;6.774;2023-02-03T00:09:45;102034.72;;;7.50;100.00
13612;BME280;6877;51.436;6.774;2023-02-03T00:12:12;102032.09;;;7.47;100.00
13612;BME280;6877;51.436;6.774;2023-02-03T00:14:42;102032.94;;;7.46;100.00
13612;BME280;6877;51.436;6.774;2023-02-03T00:17:13;102034.72;;;7.47;100.00
13612;BME280;6877;51.436;6.774;2023-02-03T00:19:40;102029.56;;;7.52;100.00
13612;BME280;6877;51.436;6.774;2023-02-03T00:22:06;102027.81;;;7.52;100.00
13612;BME280;6877;51.436;6.774;2023-02-03T00:24:33;102025.22;;;7.51;100.00
13612;BME280;6877;51.436;6.774;2023-02-03T00:26:59;102025.16;;;7.49;100.00
13612;BME280;6877;51.436;6.774;2023-02-03T00:29:26;102032.97;;;7.49;100.00
13612;BME280;6877;51.436;6.774;2023-02-03T00:31:57;102026.91;;;7.50;100.00
13612;BME280;6877;51.436;6.774;2023-02-03T00:34:28;102022.59;;;7.52;100.00
13612;BME280;6877;51.436;6.774;2023-02-03T00:36:55;102018.25;;;7.51;100.00
13612;BME280;6877;51.436;6.774;2023-02-03T00:39:22;102022.59;;;7.52;100.00
13612;BME280;6877;51.436;6.774;2023-02-03T00:41:48;102030.41;;;7.51;100.00
13612;BME280;6877;51.436;6.774;2023-02-03T00:44:15;102036.50;;;7.51;100.00
13612;BME280;6877;51.436;6.774;2023-02-03T00:46:41;102024.34;;;7.52;100.00
13612;BME280;6877;51.436;6.774;2023-02-03T00:49:13;102026.91;;;7.50;100.00
13612;BME280;6877;51.436;6.774;2023-02-03T00:51:39;102031.28;;;7.53;100.00
13612;BME280;6877;51.436;6.774;2023-02-03T00:54:06;102033.94;;;7.56;100.00
13612;BME280;6877;51.436;6.774;2023-02-03T00:56:33;102033.06;;;7.55;100.00
13612;BME280;6877;51.436;6.774;2023-02-03T00:59:04;102050.44;;;7.56;100.00
13612;BME280;6877;51.436;6.774;2023-02-03T01:01:32;102062.63;;;7.59;100.00
13612;BME280;6877;51.436;6.774;2023-02-03T01:04:04;102063.56;;;7.61;100.00
13612;BME280;6877;51.436;6.774;2023-02-03T01:06:30;102069.63;;;7.61;100.00
13612;BME280;6877;51.436;6.774;2023-02-03T01:08:57;102074.84;;;7.60;100.00
13612;BME280;6877;51.436;6.774;2023-02-03T01:11:25;102079.16;;;7.59;100.00
13612;BME280;6877;51.436;6.774;2023-02-03T01:13:53;102077.41;;;7.58;100.00
13612;BME280;6877;51.436;6.774;2023-02-03T01:16:25;102086.97;;;7.59;100.00
13612;BME280;6877;51.436;6.774;2023-02-03T01:18:56;102085.22;;;7.58;100.00
13612;BME280;6877;51.436;6.774;2023-02-03T01:21:28;102092.16;;;7.59;100.00
13612;BME280;6877;51.436;6.774;2023-02-03T01:23:55;102093.91;;;7.59;100.00
13612;BME280;6877;51.436;6.774;2023-02-03T01:26:22;102081.75;;;7.59;100.00
13612;BME280;6877;51.436;6.774;2023-02-03T01:28:56;102090.47;;;7.61;100.00
13612;BME280;6877;51.436;6.774;2023-02-03T01:31:33;102084.41;;;7.61;100.00
13612;BME280;6877;51.436;6.774;2023-02-03T01:34:02;102085.25;;;7.61;100.00
13612;BME280;6877;51.436;6.774;2023-02-03T01:36:31;102087.00;;;7.61;100.00
13612;BME280;6877;51.436;6.774;2023-02-03T01:39:03;102094.88;;;7.64;100.00
13612;BME280;6877;51.436;6.774;2023-02-03T01:41:38;102086.22;;;7.66;100.00
13612;BME280;6877;51.436;6.774;2023-02-03T01:44:34;102096.59;;;7.63;100.00
13612;BME280;6877;51.436;6.774;2023-02-03T01:52:33;102067.88;;;7.60;100.00
13612;BME280;6877;51.436;6.774;2023-02-03T01:55:09;102092.22;;;7.62;100.00
13612;BME280;6877;51.436;6.774;2023-02-03T01:57:56;102079.19;;;7.61;100.00
13612;BME280;6877;51.436;6.774;2023-02-03T02:00:24;102090.47;;;7.61;100.00
13612;BME280;6877;51.436;6.774;2023-02-03T02:02:58;102089.69;;;7.67;100.00
13612;BME280;6877;51.436;6.774;2023-02-03T02:05:31;102077.53;;;7.66;100.00
13612;BME280;6877;51.436;6.774;2023-02-03T02:08:01;102070.56;;;7.65;100.00
13612;BME280;6877;51.436;6.774;2023-02-03T02:10:29;102066.22;;;7.65;100.00
13612;BME280;6877;51.436;6.774;2023-02-03T02:12:56;102056.69;;;7.68;100.00
13612;BME280;6877;51.436;6.774;2023-02-03T02:29:27;102028.03;;;7.68;100.00
13612;BME280;6877;51.436;6.774;2023-02-03T02:35:31;102039.28;;;7.65;100.00
13612;BME280;6877;51.436;6.774;2023-02-03T02:46:33;102034.03;;;7.62;100.00
13612;BME280;6877;51.436;6.774;2023-02-03T02:49:06;102031.44;;;7.62;100.00
13612;BME280;6877;51.436;6.774;2023-02-03T02:51:36;102017.56;;;7.63;100.00
13612;BME280;6877;51.436;6.774;2023-02-03T02:54:06;102014.97;;;7.63;100.00
13612;BME280;6877;51.436;6.774;2023-02-03T02:56:35;102008.88;;;7.64;100.00
13612;BME280;6877;51.436;6.774;2023-02-03T02:59:04;101995.03;;;7.66;100.00
13612;BME280;6877;51.436;6.774;2023-02-03T03:01:32;101997.59;;;7.65;100.00
13612;BME280;6877;51.436;6.774;2023-02-03T03:04:05;102010.63;;;7.65;100.00
13612;BME280;6877;51.436;6.774;2023-02-03T03:06:45;102012.38;;;7.64;100.00
13612;BME280;6877;51.436;6.774;2023-02-03T03:09:27;102009.78;;;7.66;100.00
13612;BME280;6877;51.436;6.774;2023-02-03T03:14:34;102045.31;;;7.62;100.00
13612;BME280;6877;51.436;6.774;2023-02-03T03:17:05;102046.19;;;7.61;100.00
13612;BME280;6877;51.436;6.774;2023-02-03T03:19:37;102031.41;;;7.60;100.00
13612;BME280;6877;51.436;6.774;2023-02-03T03:22:12;102027.09;;;7.61;100.00
13612;BME280;6877;51.436;6.774;2023-02-03T03:24:50;102016.66;;;7.61;100.00
13612;BME280;6877;51.436;6.774;2023-02-03T03:27:27;102012.31;;;7.61;100.00
13612;BME280;6877;51.436;6.774;2023-02-03T03:30:02;102010.56;;;7.60;100.00
13612;BME280;6877;51.436;6.774;2023-02-03T03:32:35;102020.09;;;7.58;100.00
13612;BME280;6877;51.436;6.774;2023-02-03T03:35:02;102018.34;;;7.59;100.00
13612;BME280;6877;51.436;6.774;2023-02-03T03:37:50;102025.38;;;7.64;100.00
13612;BME280;6877;51.436;6.774;2023-02-03T03:40:23;102042.75;;;7.65;100.00
13612;BME280;6877;51.436;6.774;2023-02-03T03:42:59;102038.41;;;7.64;100.00
13612;BME280;6877;51.436;6.774;2023-02-03T03:45:41;102026.25;;;7.63;100.00
13612;BME280;6877;51.436;6.774;2023-02-03T03:48:15;102018.47;;;7.66;100.00
13612;BME280;6877;51.436;6.774;2023-02-03T03:51:11;102016.75;;;7.67;100.00
13612;BME280;6877;51.436;6.774;2023-02-03T03:53:41;102019.34;;;7.69;100.00
13612;BME280;6877;51.436;6.774;2023-02-03T03:56:16;102013.31;;;7.70;100.00
13612;BME280;6877;51.436;6.774;2023-02-03T03:58:51;102019.41;;;7.72;100.00
13612;BME280;6877;51.436;6.774;2023-02-03T04:01:20;102015.91;;;7.71;100.00
13612;BME280;6877;51.436;6.774;2023-02-03T04:03:55;102026.38;;;7.73;100.00
13612;BME280;6877;51.436;6.774;2023-02-03T04:06:29;102031.59;;;7.73;100.00
13612;BME280;6877;51.436;6.774;2023-02-03T04:09:00;102028.13;;;7.74;100.00
13612;BME280;6877;51.436;6.774;2023-02-03T04:11:27;102043.75;;;7.75;100.00
13612;BME280;6877;51.436;6.774;2023-02-03T04:14:17;102030.78;;;7.78;99.91
13612;BME280;6877;51.436;6.774;2023-02-03T04:16:43;102028.22;;;7.80;99.53
13612;BME280;6877;51.436;6.774;2023-02-03T04:19:14;102021.28;;;7.82;99.30
13612;BME280;6877;51.436;6.774;2023-02-03T04:21:41;102016.03;;;7.79;99.33
13612;BME280;6877;51.436;6.774;2023-02-03T04:24:12;102010.78;;;7.76;99.46
13612;BME280;6877;51.436;6.774;2023-02-03T04:26:39;102015.13;;;7.77;99.40
13612;BME280;6877;51.436;6.774;2023-02-03T04:29:10;102022.94;;;7.77;99.27
13612;BME280;6877;51.436;6.774;2023-02-03T04:31:37;102017.75;;;7.77;98.90
13612;BME280;6877;51.436;6.774;2023-02-03T04:34:09;102018.66;;;7.79;98.79
13612;BME280;6877;51.436;6.774;2023-02-03T04:36:40;102029.06;;;7.80;99.02
13612;BME280;6877;51.436;6.774;2023-02-03T04:39:11;102016.91;;;7.79;98.74
13612;BME280;6877;51.436;6.774;2023-02-03T04:41:38;102024.69;;;7.78;98.94
13612;BME280;6877;51.436;6.774;2023-02-03T04:44:05;102022.94;;;7.77;99.41
13612;BME280;6877;51.436;6.774;2023-02-03T04:46:31;102016.00;;;7.76;99.32
13612;BME280;6877;51.436;6.774;2023-02-03T04:48:58;102012.53;;;7.77;98.67
13612;BME280;6877;51.436;6.774;2023-02-03T04:51:24;102007.31;;;7.77;98.82
13612;BME280;6877;51.436;6.774;2023-02-03T04:53:51;102003.94;;;7.84;98.40
13612;BME280;6877;51.436;6.774;2023-02-03T04:56:17;101994.38;;;7.84;98.52
13612;BME280;6877;51.436;6.774;2023-02-03T04:58:43;102003.97;;;7.87;97.53
13612;BME280;6877;51.436;6.774;2023-02-03T05:01:10;101987.47;;;7.86;97.95
13612;BME280;6877;51.436;6.774;2023-02-03T05:03:36;101989.16;;;7.84;97.63
13612;BME280;6877;51.436;6.774;2023-02-03T05:06:03;101980.47;;;7.82;97.98
13612;BME280;6877;51.436;6.774;2023-02-03T05:08:30;101983.06;;;7.84;98.14
13612;BME280;6877;51.436;6.774;2023-02-03T05:10:57;101982.22;;;7.83;97.89
13612;BME280;6877;51.436;6.774;2023-02-03T05:13:23;101980.47;;;7.82;98.16
13612;BME280;6877;51.436;6.774;2023-02-03T05:15:50;101983.91;;;7.80;98.38
13612;BME280;6877;51.436;6.774;2023-02-03T05:18:16;101976.09;;;7.80;98.26
13612;BME280;6877;51.436;6.774;2023-02-03T05:20:47;101965.69;;;7.83;98.25
13612;BME280;6877;51.436;6.774;2023-02-03T05:23:19;101976.13;;;7.83;97.93
13612;BME280;6877;51.436;6.774;2023-02-03T05:25:45;101977.00;;;7.82;97.82
13612;BME280;6877;51.436;6.774;2023-02-03T05:28:17;101977.88;;;7.84;97.57
13612;BME280;6877;51.436;6.774;2023-02-03T05:30:48;101988.28;;;7.84;97.33
13612;BME280;6877;51.436;6.774;2023-02-03T05:33:19;102002.22;;;7.86;97.56
13612;BME280;6877;51.436;6.774;2023-02-03T05:35:46;102003.97;;;7.87;97.51
13612;BME280;6877;51.436;6.774;2023-02-03T05:38:12;102000.50;;;7.86;97.75
13612;BME280;6877;51.436;6.774;2023-02-03T05:40:38;101987.47;;;7.86;97.51
13612;BME280;6877;51.436;6.774;2023-02-03T05:43:24;101994.38;;;7.84;97.32
13612;BME280;6877;51.436;6.774;2023-02-03T05:45:50;101990.06;;;7.86;97.46
13612;BME280;6877;51.436;6.774;2023-02-03T05:48:25;101989.19;;;7.86;97.21
13612;BME280;6877;51.436;6.774;2023-02-03T05:50:51;101992.66;;;7.88;97.16
13612;BME280;6877;51.436;6.774;2023-02-03T05:53:18;101992.66;;;7.88;97.05
13612;BME280;6877;51.436;6.774;2023-02-03T05:55:49;101981.41;;;7.89;97.36
13612;BME280;6877;51.436;6.774;2023-02-03T05:58:22;101990.13;;;7.93;96.36
13612;BME280;6877;51.436;6.774;2023-02-03T06:00:49;101997.97;;;7.94;96.94
13612;BME280;6877;51.436;6.774;2023-02-03T06:03:20;101991.00;;;7.93;96.86
13612;BME280;6877;51.436;6.774;2023-02-03T06:05:47;101989.28;;;7.94;96.58
13612;BME280;6877;51.436;6.774;2023-02-03T06:08:18;101998.88;;;7.96;96.50
13612;BME280;6877;51.436;6.774;2023-02-03T06:10:50;101991.94;;;7.98;96.01
13612;BME280;6877;51.436;6.774;2023-02-03T06:13:16;101993.72;;;8.01;95.97
13612;BME280;6877;51.436;6.774;2023-02-03T06:15:42;101988.47;;;7.99;95.85
13612;BME280;6877;51.436;6.774;2023-02-03T06:18:10;102000.59;;;7.97;96.02
13612;BME280;6877;51.436;6.774;2023-02-03T06:20:41;101990.22;;;8.00;95.92
13612;BME280;6877;51.436;6.774;2023-02-03T06:23:08;101990.22;;;8.00;95.93
13612;BME280;6877;51.436;6.774;2023-02-03T06:25:34;101987.66;;;8.02;95.77
13612;BME280;6877;51.436;6.774;2023-02-03T06:28:01;101985.91;;;8.02;95.82
13612;BME280;6877;51.436;6.774;2023-02-03T06:30:27;101981.53;;;8.00;95.68
13612;BME280;6877;51.436;6.774;2023-02-03T06:32:54;102007.63;;;8.01;95.26
13612;BME280;6877;51.436;6.774;2023-02-03T06:35:25;101996.34;;;8.04;95.62
13612;BME280;6877;51.436;6.774;2023-02-03T06:37:51;102001.59;;;8.07;95.40
13612;BME280;6877;51.436;6.774;2023-02-03T06:40:18;102002.50;;;8.07;95.28
13612;BME280;6877;51.436;6.774;2023-02-03T06:42:49;102002.53;;;8.10;95.14
13612;BME280;6877;51.436;6.774;2023-02-03T06:45:21;101993.81;;;8.10;95.07
13612;BME280;6877;51.436;6.774;2023-02-03T06:47:54;101995.59;;;8.12;94.91
13612;BME280;6877;51.436;6.774;2023-02-03T06:50:21;102003.41;;;8.12;95.13
13612;BME280;6877;51.436;6.774;2023-02-03T06:52:48;101994.72;;;8.12;94.71
13612;BME280;6877;51.436;6.774;2023-02-03T06:55:14;101984.31;;;8.13;94.90
13612;BME280;6877;51.436;6.774;2023-02-03T06:57:47;101988.63;;;8.11;94.98
13612;BME280;6877;51.436;6.774;2023-02-03T07:00:15;101995.59;;;8.12;94.97
13612;BME280;6877;51.436;6.774;2023-02-03T07:02:42;101990.38;;;8.12;95.04
13612;BME280;6877;51.436;6.774;2023-02-03T07:05:10;101991.25;;;8.13;94.83
13612;BME280;6877;51.436;6.774;2023-02-03T07:07:37;101999.97;;;8.15;94.92
13612;BME280;6877;51.436;6.774;2023-02-03T07:10:05;102004.31;;;8.16;94.71
13612;BME280;6877;51.436;6.774;2023-02-03T07:12:32;102013.03;;;8.18;94.52
13612;BME280;6877;51.436;6.774;2023-02-03T07:15:04;102006.94;;;8.19;94.45
13612;BME280;6877;51.436;6.774;2023-02-03T07:17:30;101993.00;;;8.16;94.70
13612;BME280;6877;51.436;6.774;2023-02-03T07:19:57;101999.13;;;8.19;94.53
13612;BME280;6877;51.436;6.774;2023-02-03T07:22:26;101988.66;;;8.15;94.69
13612;BME280;6877;51.436;6.774;2023-02-03T07:24:53;101990.41;;;8.14;94.66
13612;BME280;6877;51.436;6.774;2023-02-03T07:27:19;101998.25;;;8.17;94.04
13612;BME280;6877;51.436;6.774;2023-02-03T07:29:46;102002.59;;;8.17;94.26
13612;BME280;6877;51.436;6.774;2023-02-03T07:32:12;102003.47;;;8.17;94.98
13612;BME280;6877;51.436;6.774;2023-02-03T07:34:38;102001.72;;;8.18;94.84
13612;BME280;6877;51.436;6.774;2023-02-03T07:37:05;101986.06;;;8.16;94.08
13612;BME280;6877;51.436;6.774;2023-02-03T07:39:31;101987.00;;;8.20;94.53
13612;BME280;6877;51.436;6.774;2023-02-03T07:41:59;101994.81;;;8.21;94.17
13612;BME280;6877;51.436;6.774;2023-02-03T07:44:25;102005.25;;;8.21;94.27
13612;BME280;6877;51.436;6.774;2023-02-03T07:46:51;102011.38;;;8.25;93.60
13612;BME280;6877;51.436;6.774;2023-02-03T07:49:20;102020.94;;;8.26;93.78
13612;BME280;6877;51.436;6.774;2023-02-03T07:51:47;102017.44;;;8.25;93.89
13612;BME280;6877;51.436;6.774;2023-02-03T07:54:13;102023.53;;;8.26;93.82
13612;BME280;6877;51.436;6.774;2023-02-03T07:56:45;102007.94;;;8.29;93.65
13612;BME280;6877;51.436;6.774;2023-02-03T07:59:11;102014.91;;;8.30;93.19
13612;BME280;6877;51.436;6.774;2023-02-03T08:01:43;102021.88;;;8.29;93.23
13612;BME280;6877;51.436;6.774;2023-02-03T08:04:14;102026.19;;;8.27;93.64
13612;BME280;6877;51.436;6.774;2023-02-03T08:06:42;102022.72;;;8.27;93.76
13612;BME280;6877;51.436;6.774;2023-02-03T08:09:09;102045.34;;;8.29;93.24
13612;BME280;6877;51.436;6.774;2023-02-03T08:11:40;102028.78;;;8.29;93.44
13612;BME280;6877;51.436;6.774;2023-02-03T08:14:07;102029.66;;;8.28;93.65
13612;BME280;6877;51.436;6.774;2023-02-03T08:16:33;102033.19;;;8.31;93.25
13612;BME280;6877;51.436;6.774;2023-02-03T08:18:59;102029.72;;;8.32;93.28
13612;BME280;6877;51.436;6.774;2023-02-03T08:21:31;102028.88;;;8.35;93.07
13612;BME280;6877;51.436;6.774;2023-02-03T08:23:57;102039.28;;;8.33;93.34
13612;BME280;6877;51.436;6.774;2023-02-03T08:26:24;102021.88;;;8.31;93.79
13612;BME280;6877;51.436;6.774;2023-02-03T08:28:50;102032.34;;;8.34;93.54
13612;BME280;6877;51.436;6.774;2023-02-03T08:31:17;102036.66;;;8.32;93.62
13612;BME280;6877;51.436;6.774;2023-02-03T08:33:43;102046.25;;;8.33;93.71
13612;BME280;6877;51.436;6.774;2023-02-03T08:36:10;102045.34;;;8.31;93.79
13612;BME280;6877;51.436;6.774;2023-02-03T08:38:38;102036.75;;;8.38;93.22
13612;BME280;6877;51.436;6.774;2023-02-03T08:41:10;102032.34;;;8.34;93.49
13612;BME280;6877;51.436;6.774;2023-02-03T08:43:43;102030.59;;;8.33;93.88
13612;BME280;6877;51.436;6.774;2023-02-03T08:46:11;102041.91;;;8.33;94.01
13612;BME280;6877;51.436;6.774;2023-02-03T08:48:37;102043.63;;;8.33;93.94
13612;BME280;6877;51.436;6.774;2023-02-03T08:51:15;102036.69;;;8.33;94.12
13612;BME280;6877;51.436;6.774;2023-02-03T08:53:46;102037.56;;;8.34;93.60
13612;BME280;6877;51.436;6.774;2023-02-03T08:56:18;102047.16;;;8.36;93.97
13612;BME280;6877;51.436;6.774;2023-02-03T08:58:44;102058.47;;;8.35;94.09
13612;BME280;6877;51.436;6.774;2023-02-03T09:01:14;102051.50;;;8.38;93.65
13612;BME280;6877;51.436;6.774;2023-02-03T09:03:40;102040.19;;;8.37;93.75
13612;BME280;6877;51.436;6.774;2023-02-03T09:06:08;102045.41;;;8.37;93.88
13612;BME280;6877;51.436;6.774;2023-02-03T09:08:36;102039.34;;;8.36;94.05
13612;BME280;6877;51.436;6.774;2023-02-03T09:11:11;102054.19;;;8.39;93.92
13612;BME280;6877;51.436;6.774;2023-02-03T09:13:41;102055.91;;;8.39;94.03
13612;BME280;6877;51.436;6.774;2023-02-03T09:16:12;102060.22;;;8.38;94.43
13612;BME280;6877;51.436;6.774;2023-02-03T09:18:44;102059.41;;;8.41;93.97
13612;BME280;6877;51.436;6.774;2023-02-03T09:21:12;102055.94;;;8.43;93.93
13612;BME280;6877;51.436;6.774;2023-02-03T09:23:41;102067.25;;;8.44;93.95
13612;BME280;6877;51.436;6.774;2023-02-03T09:26:11;102064.66;;;8.44;94.17
13612;BME280;6877;51.436;6.774;2023-02-03T09:28:37;102066.38;;;8.43;94.46
13612;BME280;6877;51.436;6.774;2023-02-03T09:31:06;102066.38;;;8.43;94.35
13612;BME280;6877;51.436;6.774;2023-02-03T09:33:33;102068.13;;;8.43;94.42
13612;BME280;6877;51.436;6.774;2023-02-03T09:35:59;102066.38;;;8.45;94.43
13612;BME280;6877;51.436;6.774;2023-02-03T09:38:32;102073.41;;;8.49;94.71
13612;BME280;6877;51.436;6.774;2023-02-03T09:43:46;102066.47;;;8.49;94.68
13612;BME280;6877;51.436;6.774;2023-02-03T09:46:19;102075.16;;;8.50;94.88
13612;BME280;6877;51.436;6.774;2023-02-03T09:48:49;102079.50;;;8.49;94.89
13612;BME280;6877;51.436;6.774;2023-02-03T09:51:26;102076.03;;;8.50;94.79
13612;BME280;6877;51.436;6.774;2023-02-03T09:54:06;102069.94;;;8.50;94.86
13612;BME280;6877;51.436;6.774;2023-02-03T09:56:38;102083.84;;;8.50;94.91
13612;BME280;6877;51.436;6.774;2023-02-03T09:59:08;102075.22;;;8.56;94.70
13612;BME280;6877;51.436;6.774;2023-02-03T10:02:12;102062.22;;;8.61;94.42
13612;BME280;6877;51.436;6.774;2023-02-03T10:04:57;102056.19;;;8.65;94.43
13612;BME280;6877;51.436;6.774;2023-02-03T10:12:42;102069.38;;;8.77;93.76
13612;BME280;6877;51.436;6.774;2023-02-03T10:18:23;102073.88;;;8.95;93.11
13612;BME280;6877;51.436;6.774;2023-02-03T10:21:05;102073.06;;;8.99;93.16
13612;BME280;6877;51.436;6.774;2023-02-03T10:23:40;102060.91;;;9.02;92.99
13612;BME280;6877;51.436;6.774;2023-02-03T10:26:19;102063.56;;;9.09;92.77
13612;BME280;6877;51.436;6.774;2023-02-03T10:28:53;102073.16;;;9.10;92.34
13612;BME280;6877;51.436;6.774;2023-02-03T10:31:26;102074.03;;;9.12;92.41
13612;BME280;6877;51.436;6.774;2023-02-03T10:34:08;102076.69;;;9.15;92.46
13612;BME280;6877;51.436;6.774;2023-02-03T10:36:58;102081.03;;;9.16;92.54
13612;BME280;6877;51.436;6.774;2023-02-03T10:39:45;102068.00;;;9.19;92.13
13612;BME280;6877;51.436;6.774;2023-02-03T10:42:13;102085.41;;;9.20;92.31
13612;BME280;6877;51.436;6.774;2023-02-03T10:44:56;102079.31;;;9.18;92.11
13612;BME280;6877;51.436;6.774;2023-02-03T10:47:29;102081.97;;;9.21;92.41
13612;BME280;6877;51.436;6.774;2023-02-03T10:50:15;102074.16;;;9.24;92.11
13612;BME280;6877;51.436;6.774;2023-02-03T10:52:41;102072.38;;;9.23;92.62
13612;BME280;6877;51.436;6.774;2023-02-03T10:57:51;102064.56;;;9.26;91.84
13612;BME280;6877;51.436;6.774;2023-02-03T11:00:22;102061.97;;;9.26;92.20
13612;BME280;6877;51.436;6.774;2023-02-03T11:03:03;102057.59;;;9.25;92.36
13612;BME280;6877;51.436;6.774;2023-02-03T11:05:31;102061.13;;;9.27;92.19
13612;BME280;6877;51.436;6.774;2023-02-03T11:07:57;102067.22;;;9.27;92.29
13612;BME280;6877;51.436;6.774;2023-02-03T11:10:28;102078.53;;;9.28;92.24
13612;BME280;6877;51.436;6.774;2023-02-03T11:21:32;102088.09;;;9.27;92.51
13612;BME280;6877;51.436;6.774;2023-02-03T11:27:13;102088.13;;;9.31;92.26
13612;BME280;6877;51.436;6.774;2023-02-03T11:29:43;102095.94;;;9.29;92.32
13612;BME280;6877;51.436;6.774;2023-02-03T11:32:23;102102.94;;;9.30;92.48
13612;BME280;6877;51.436;6.774;2023-02-03T11:34:57;102108.16;;;9.30;92.73
13612;BME280;6877;51.436;6.774;2023-02-03T11:37:32;102099.44;;;9.31;92.70
13612;BME280;6877;51.436;6.774;2023-02-03T11:42:34;102104.69;;;9.33;92.29
13612;BME280;6877;51.436;6.774;2023-02-03T11:47:48;102100.34;;;9.36;92.51
13612;BME280;6877;51.436;6.774;2023-02-03T11:50:52;102096.00;;;9.35;92.50
13612;BME280;6877;51.436;6.774;2023-02-03T11:56:08;102099.47;;;9.36;92.59
13612;BME280;6877;51.436;6.774;2023-02-03T12:21:43;102102.19;;;9.48;92.60
13612;BME280;6877;51.436;6.774;2023-02-03T12:24:33;102116.13;;;9.48;92.79
13612;BME280;6877;51.436;6.774;2023-02-03T12:29:40;102113.53;;;9.51;92.26
13612;BME280;6877;51.436;6.774;2023-02-03T12:32:35;102101.34;;;9.50;92.72
13612;BME280;6877;51.436;6.774;2023-02-03T12:35:18;102114.44;;;9.52;92.72
13612;BME280;6877;51.436;6.774;2023-02-03T12:37:57;102116.19;;;9.53;92.78
13612;BME280;6877;51.436;6.774;2023-02-03T12:43:43;102105.72;;;9.53;92.28
13612;BME280;6877;51.436;6.774;2023-02-03T12:46:30;102108.34;;;9.55;92.45
13612;BME280;6877;51.436;6.774;2023-02-03T12:51:47;102110.97;;;9.58;92.42
13612;BME280;6877;51.436;6.774;2023-02-03T12:54:39;102116.19;;;9.58;92.50
13612;BME280;6877;51.436;6.774;2023-02-03T12:57:15;102122.31;;;9.60;92.37
13612;BME280;6877;51.436;6.774;2023-02-03T12:59:54;102121.47;;;9.62;92.42
13612;BME280;6877;51.436;6.774;2023-02-03T13:02:27;102117.09;;;9.61;93.31
13612;BME280;6877;51.436;6.774;2023-02-03T13:05:12;102108.34;;;9.58;93.79
13612;BME280;6877;51.436;6.774;2023-02-03T13:07:47;102103.94;;;9.50;94.84
13612;BME280;6877;51.436;6.774;2023-02-03T13:10:40;102104.72;;;9.39;96.23
13612;BME280;6877;51.436;6.774;2023-02-03T13:13:25;102106.41;;;9.32;96.79
13612;BME280;6877;51.436;6.774;2023-02-03T13:15:54;102113.34;;;9.27;96.37
13612;BME280;6877;51.436;6.774;2023-02-03T13:18:32;102111.59;;;9.24;97.22
13612;BME280;6877;51.436;6.774;2023-02-03T13:21:00;102115.94;;;9.25;97.10
13612;BME280;6877;51.436;6.774;2023-02-03T13:23:32;102098.56;;;9.29;97.43
13612;BME280;6877;51.436;6.774;2023-02-03T13:34:44;102097.88;;;9.55;94.87
13612;BME280;6877;51.436;6.774;2023-02-03T13:43:04;102071.78;;;9.61;94.57
13612;BME280;6877;51.436;6.774;2023-02-03T13:48:12;102086.66;;;9.65;93.46
13612;BME280;6877;51.436;6.774;2023-02-03T13:50:43;102097.94;;;9.64;94.00
13612;BME280;6877;51.436;6.774;2023-02-03T13:53:22;102092.69;;;9.61;94.27
13612;BME280;6877;51.436;6.774;2023-02-03T13:58:22;102105.78;;;9.62;93.29
13612;BME280;6877;51.436;6.774;2023-02-03T14:05:51;102095.34;;;9.65;93.12
13612;BME280;6877;51.436;6.774;2023-02-03T14:19:07;102105.84;;;9.71;92.24
13612;BME280;6877;51.436;6.774;2023-02-03T14:21:56;102119.72;;;9.64;92.63
13612;BME280;6877;51.436;6.774;2023-02-03T14:24:37;102153.72;;;9.63;93.15
13612;BME280;6877;51.436;6.774;2023-02-03T14:27:16;102156.78;;;9.16;94.33
13612;BME280;6877;51.436;6.774;2023-02-03T14:29:44;102156.28;;;8.70;98.23
13612;BME280;6877;51.436;6.774;2023-02-03T14:32:13;102163.53;;;8.27;99.82
13612;BME280;6877;51.436;6.774;2023-02-03T14:34:41;102150.94;;;7.95;100.00
13612;BME280;6877;51.436;6.774;2023-02-03T14:56:51;102197.31;;;7.14;100.00
13612;BME280;6877;51.436;6.774;2023-02-03T15:07:57;102220.00;;;7.22;100.00
13612;BME280;6877;51.436;6.774;2023-02-03T15:10:39;102234.88;;;7.27;100.00
13612;BME280;6877;51.436;6.774;2023-02-03T15:13:27;102234.94;;;7.30;100.00
13612;BME280;6877;51.436;6.774;2023-02-03T15:15:56;102228.09;;;7.35;100.00
13612;BME280;6877;51.436;6.774;2023-02-03T15:18:31;102227.28;;;7.38;100.00
13612;BME280;6877;51.436;6.774;2023-02-03T15:21:03;102236.84;;;7.40;100.00
13612;BME280;6877;51.436;6.774;2023-02-03T15:23:43;102236.09;;;7.46;100.00
13612;BME280;6877;51.436;6.774;2023-02-03T15:26:24;102237.91;;;7.50;100.00
13612;BME280;6877;51.436;6.774;2023-02-03T15:29:02;102237.13;;;7.56;100.00
13612;BME280;6877;51.436;6.774;2023-02-03T15:31:37;102243.28;;;7.59;100.00
13612;BME280;6877;51.436;6.774;2023-02-03T15:36:52;102234.66;;;7.62;100.00
13612;BME280;6877;51.436;6.774;2023-02-03T15:42:08;102239.84;;;7.60;100.00
13612;BME280;6877;51.436;6.774;2023-02-03T15:44:47;102246.81;;;7.61;100.00
13612;BME280;6877;51.436;6.774;2023-02-03T15:47:33;102249.47;;;7.64;100.00
13612;BME280;6877;51.436;6.774;2023-02-03T15:50:07;102252.88;;;7.62;100.00
13612;BME280;6877;51.436;6.774;2023-02-03T15:52:36;102256.31;;;7.59;100.00
13612;BME280;6877;51.436;6.774;2023-02-03T15:55:14;102256.41;;;7.64;100.00
13612;BME280;6877;51.436;6.774;2023-02-03T15:57:43;102258.97;;;7.62;100.00
13612;BME280;6877;51.436;6.774;2023-02-03T16:00:32;102255.53;;;7.63;100.00
13612;BME280;6877;51.436;6.774;2023-02-03T16:03:01;102261.63;;;7.64;100.00
13612;BME280;6877;51.436;6.774;2023-02-03T16:05:32;102259.81;;;7.61;100.00
13612;BME280;6877;51.436;6.774;2023-02-03T16:08:35;102267.66;;;7.61;100.00
13612;BME280;6877;51.436;6.774;2023-02-03T16:11:26;102276.34;;;7.62;100.00
13612;BME280;6877;51.436;6.774;2023-02-03T16:13:53;102278.06;;;7.61;100.00
13612;BME280;6877;51.436;6.774;2023-02-03T16:16:32;102278.13;;;7.64;100.00
13612;BME280;6877;51.436;6.774;2023-02-03T16:19:04;102286.78;;;7.63;100.00
13612;BME280;6877;51.436;6.774;2023-02-03T16:21:40;102295.50;;;7.65;100.00